Time;durP1;ratioP1;P1;durP2;ratioP2;P2;SDS_P1;SDS_P2;PMS_P1;PMS_P2;Temp;Humidity;BMP_temperature;BMP_pressure;BME280_temperature;BME280_humidity;BME280_pressure;Samples;Min_cycle;Max_cycle;Signal;HPM_P1;HPM_P2
2022/06/21 00:02:04;;;;;;;7.40;3.05;;;;;;;;;;4972956;28;20034;-66
2022/06/21 00:04:31;;;;;;;10.30;3.13;;;;;;;;;;4993134;28;20080;-65
2022/06/21 00:07:03;;;;;;;18.08;3.63;;;;;;;;;;5000793;28;20026;-66
2022/06/21 00:09:29;;;;;;;8.57;2.90;;;;;;;;;;5010807;28;20485;-65
2022/06/21 00:11:54;;;;;;;9.80;3.00;;;;;;;;;;5012968;28;20030;-65
2022/06/21 00:14:20;;;;;;;5.78;3.25;;;;;;;;;;5013069;28;20109;-65
2022/06/21 00:16:46;;;;;;;10.45;3.60;;;;;;;;;;5013219;28;20084;-66
2022/06/21 00:19:22;;;;;;;10.60;3.33;;;;;;;;;;5013189;28;20036;-65
2022/06/21 00:21:49;;;;;;;6.60;3.20;;;;;;;;;;5013088;28;20465;-66
2022/06/21 00:24:18;;;;;;;10.20;3.40;;;;;;;;;;5013093;28;20014;-67
2022/06/21 00:26:45;;;;;;;11.85;3.55;;;;;;;;;;5013295;28;20125;-66
2022/06/21 00:29:12;;;;;;;9.98;3.47;;;;;;;;;;5012615;28;20018;-66
2022/06/21 00:31:48;;;;;;;7.97;3.58;;;;;;;;;;5012781;28;20080;-67
2022/06/21 00:34:20;;;;;;;7.90;4.00;;;;;;;;;;5012799;28;20559;-67
2022/06/21 00:36:48;;;;;;;10.55;4.28;;;;;;;;;;5012885;28;20026;-66
2022/06/21 00:39:17;;;;;;;11.02;3.20;;;;;;;;;;5012917;28;20460;-66
2022/06/21 00:41:54;;;;;;;4.72;3.05;;;;;;;;;;5011678;28;20045;-65
2022/06/21 00:44:20;;;;;;;6.00;3.25;;;;;;;;;;4978141;28;20039;-66
2022/06/21 00:46:49;;;;;;;5.40;3.20;;;;;;;;;;4974566;28;20027;-66
2022/06/21 00:49:26;;;;;;;7.68;3.10;;;;;;;;;;4973275;28;20151;-67
2022/06/21 00:52:02;;;;;;;4.50;2.90;;;;;;;;;;4973635;28;20042;-66
2022/06/21 00:54:57;;;;;;;6.20;2.90;;;;;;;;;;4973370;28;20034;-66
2022/06/21 00:57:29;;;;;;;9.57;3.00;;;;;;;;;;4971797;28;20051;-65
2022/06/21 00:59:58;;;;;;;11.50;3.40;;;;;;;;;;4974686;28;20121;-67
2022/06/21 01:02:32;;;;;;;6.10;3.00;;;;;;;;;;4980330;28;20158;-65
2022/06/21 01:05:01;;;;;;;5.22;2.95;;;;;;;;;;5011114;28;20042;-66
2022/06/21 01:07:27;;;;;;;7.53;3.20;;;;;;;;;;5015645;28;20041;-66
2022/06/21 01:10:01;;;;;;;4.80;3.10;;;;;;;;;;4996230;28;20035;-66
2022/06/21 01:12:52;;;;;;;9.43;3.63;;;;;;;;;;4992661;28;20392;-65
2022/06/21 01:15:23;;;;;;;8.25;3.22;;;;;;;;;;4994679;28;20042;-67
2022/06/21 01:17:55;;;;;;;8.90;3.72;;;;;;;;;;4995269;28;20027;-65
2022/06/21 01:20:24;;;;;;;12.20;3.60;;;;;;;;;;4995163;28;20034;-65
2022/06/21 01:22:53;;;;;;;8.32;3.90;;;;;;;;;;4995111;28;20448;-66
2022/06/21 01:25:43;;;;;;;9.38;3.90;;;;;;;;;;4995454;28;20053;-67
2022/06/21 01:28:11;;;;;;;7.63;3.28;;;;;;;;;;4995121;28;20092;-66
2022/06/21 01:30:39;;;;;;;5.45;2.90;;;;;;;;;;4995382;28;20018;-66
2022/06/21 01:33:06;;;;;;;6.30;2.90;;;;;;;;;;4995107;28;20438;-65
2022/06/21 01:35:54;;;;;;;6.40;2.85;;;;;;;;;;4995185;28;20392;-66
2022/06/21 01:38:34;;;;;;;7.28;3.60;;;;;;;;;;5000860;28;20052;-65
2022/06/21 01:41:22;;;;;;;9.50;5.57;;;;;;;;;;4997984;28;20034;-66
2022/06/21 01:43:52;;;;;;;14.02;6.05;;;;;;;;;;4995170;28;20042;-66
2022/06/21 01:46:21;;;;;;;7.68;3.65;;;;;;;;;;4995049;28;20050;-66
2022/06/21 01:48:53;;;;;;;7.10;3.40;;;;;;;;;;4983029;28;20500;-66
2022/06/21 01:51:25;;;;;;;4.97;3.07;;;;;;;;;;4975100;28;20035;-67
2022/06/21 01:53:53;;;;;;;12.77;3.55;;;;;;;;;;4975380;28;20035;-66
2022/06/21 01:56:25;;;;;;;6.40;3.28;;;;;;;;;;4975572;28;20031;-65
2022/06/21 01:59:14;;;;;;;7.88;3.47;;;;;;;;;;4975590;28;20035;-66
2022/06/21 02:02:20;;;;;;;8.45;3.42;;;;;;;;;;4976302;28;20043;-67
2022/06/21 02:05:03;;;;;;;9.23;4.18;;;;;;;;;;4974954;28;20058;-65
2022/06/21 02:07:34;;;;;;;9.02;4.25;;;;;;;;;;4975180;28;20047;-65
2022/06/21 02:10:11;;;;;;;7.78;4.53;;;;;;;;;;4975720;28;20496;-66
2022/06/21 02:12:54;;;;;;;15.20;5.10;;;;;;;;;;4974003;28;20031;-66
2022/06/21 02:15:40;;;;;;;;;;;;;;;;;;4975327;28;20081;-66
2022/06/21 02:18:11;;;;;;;9.60;3.35;;;;;;;;;;4974736;28;20440;-66
2022/06/21 02:20:50;;;;;;;6.80;3.65;;;;;;;;;;4975576;28;20441;-65
2022/06/21 02:23:18;;;;;;;10.15;4.22;;;;;;;;;;4974772;28;20031;-66
2022/06/21 02:25:45;;;;;;;8.13;3.72;;;;;;;;;;4974932;28;20027;-65
2022/06/21 02:28:14;;;;;;;9.73;3.83;;;;;;;;;;4974766;28;20468;-64
2022/06/21 02:30:41;;;;;;;10.55;4.32;;;;;;;;;;4974891;28;20026;-65
2022/06/21 02:33:13;;;;;;;7.82;3.85;;;;;;;;;;4974572;28;20069;-65
2022/06/21 02:35:47;;;;;;;11.38;4.07;;;;;;;;;;4974255;28;20077;-66
2022/06/21 02:38:25;;;;;;;8.10;4.40;;;;;;;;;;4974349;28;20413;-66
2022/06/21 02:40:58;;;;;;;12.05;4.60;;;;;;;;;;4974302;28;20046;-65
2022/06/21 02:43:30;;;;;;;10.60;4.30;;;;;;;;;;4975747;28;20042;-65
2022/06/21 02:46:04;;;;;;;7.72;4.40;;;;;;;;;;4975071;28;20430;-66
2022/06/21 02:48:34;;;;;;;7.65;4.25;;;;;;;;;;4998258;28;20087;-65
2022/06/21 02:51:13;;;;;;;10.85;4.72;;;;;;;;;;5002331;28;20389;-66
2022/06/21 02:54:02;;;;;;;11.68;4.97;;;;;;;;;;4993823;28;20034;-66
2022/06/21 02:56:42;;;;;;;10.57;4.82;;;;;;;;;;4993379;28;20030;-66
2022/06/21 02:59:09;;;;;;;6.28;4.07;;;;;;;;;;4993700;28;20109;-66
2022/06/21 03:01:41;;;;;;;7.82;4.20;;;;;;;;;;4993455;28;20515;-67
2022/06/21 03:04:24;;;;;;;11.90;4.43;;;;;;;;;;4993356;28;20092;-66
2022/06/21 03:06:50;;;;;;;5.82;4.40;;;;;;;;;;4993105;28;20046;-65
2022/06/21 03:09:20;;;;;;;8.63;4.20;;;;;;;;;;4993111;28;20101;-66
2022/06/21 03:11:49;;;;;;;8.07;4.25;;;;;;;;;;4992862;28;20405;-66
2022/06/21 03:14:18;;;;;;;12.90;4.50;;;;;;;;;;4985133;28;20033;-66
2022/06/21 03:16:45;;;;;;;6.85;4.60;;;;;;;;;;4974392;28;20062;-66
2022/06/21 03:19:26;;;;;;;7.55;4.65;;;;;;;;;;4974216;28;20027;-67
2022/06/21 03:21:53;;;;;;;6.78;4.60;;;;;;;;;;4973459;28;20050;-66
2022/06/21 03:24:23;;;;;;;8.55;4.90;;;;;;;;;;4973345;28;20054;-67
2022/06/21 03:27:03;;;;;;;12.27;6.25;;;;;;;;;;4973218;28;20094;-66
2022/06/21 03:29:30;;;;;;;10.90;7.00;;;;;;;;;;4973257;28;20034;-66
2022/06/21 03:31:59;;;;;;;22.50;9.73;;;;;;;;;;4973115;28;20418;-67
2022/06/21 03:34:26;;;;;;;12.02;6.45;;;;;;;;;;4973593;28;20126;-66
2022/06/21 03:36:52;;;;;;;11.40;4.60;;;;;;;;;;4973272;28;20031;-65
2022/06/21 03:41:42;;;;;;;9.68;4.72;;;;;;;;;;4972133;28;20069;-67
2022/06/21 03:42:13;;;;;;;11.50;4.50;;;;;;;;;;4973103;28;20109;-65
2022/06/21 03:44:57;;;;;;;9.50;4.78;;;;;;;;;;4972842;28;20019;-66
2022/06/21 03:47:28;;;;;;;7.57;4.55;;;;;;;;;;4972674;28;20442;-66
2022/06/21 03:50:08;;;;;;;8.18;4.45;;;;;;;;;;4972943;28;20031;-66
2022/06/21 03:53:03;;;;;;;12.38;4.10;;;;;;;;;;4973077;28;20030;-66
2022/06/21 03:55:53;;;;;;;9.05;4.65;;;;;;;;;;4973083;28;20031;-67
2022/06/21 03:58:43;;;;;;;8.52;4.70;;;;;;;;;;4972749;28;20042;-67
2022/06/21 04:01:14;;;;;;;8.80;4.38;;;;;;;;;;4976393;28;20393;-66
2022/06/21 04:03:50;;;;;;;9.73;4.55;;;;;;;;;;4977467;28;20046;-66
2022/06/21 04:06:36;;;;;;;10.98;4.85;;;;;;;;;;4973014;28;20041;-68
2022/06/21 04:09:27;;;;;;;12.85;5.05;;;;;;;;;;4972861;28;20031;-67
2022/06/21 04:12:09;;;;;;;7.57;4.28;;;;;;;;;;4972651;28;20031;-66
2022/06/21 04:14:45;;;;;;;7.60;3.90;;;;;;;;;;4973007;28;20461;-66
2022/06/21 04:17:23;;;;;;;12.20;4.65;;;;;;;;;;4972872;28;20027;-66
2022/06/21 04:19:52;;;;;;;8.98;4.18;;;;;;;;;;4972697;28;20035;-66
2022/06/21 04:22:38;;;;;;;10.65;4.47;;;;;;;;;;4973712;28;20421;-66
2022/06/21 04:25:35;;;;;;;9.15;4.70;;;;;;;;;;4972672;28;20157;-66
2022/06/21 04:28:27;;;;;;;9.20;4.80;;;;;;;;;;4972386;28;20500;-68
2022/06/21 04:31:02;;;;;;;9.13;4.63;;;;;;;;;;4973420;28;20061;-66
2022/06/21 04:33:35;;;;;;;11.93;4.88;;;;;;;;;;4972331;28;20375;-66
2022/06/21 04:36:07;;;;;;;8.43;3.97;;;;;;;;;;4980724;28;20424;-67
2022/06/21 04:38:43;;;;;;;11.55;4.40;;;;;;;;;;4995409;28;20470;-67
2022/06/21 04:41:30;;;;;;;10.50;4.43;;;;;;;;;;5001728;28;20548;-66
2022/06/21 04:44:12;;;;;;;7.70;4.57;;;;;;;;;;4977331;28;20050;-67
2022/06/21 04:46:53;;;;;;;7.78;4.25;;;;;;;;;;4977060;28;20114;-65
2022/06/21 04:49:26;;;;;;;13.27;4.82;;;;;;;;;;4977385;28;20034;-65
2022/06/21 04:52:02;;;;;;;13.70;4.20;;;;;;;;;;4977132;28;20043;-66
2022/06/21 04:54:35;;;;;;;11.35;4.47;;;;;;;;;;4976999;28;20031;-66
2022/06/21 04:57:07;;;;;;;10.48;4.40;;;;;;;;;;4976888;28;20030;-67
2022/06/21 04:59:47;;;;;;;8.55;4.55;;;;;;;;;;4976686;28;20374;-66
2022/06/21 05:02:23;;;;;;;8.10;4.35;;;;;;;;;;4981243;28;20096;-66
2022/06/21 05:05:17;;;;;;;6.43;4.15;;;;;;;;;;4977130;28;20035;-66
2022/06/21 05:08:03;;;;;;;6.30;4.18;;;;;;;;;;4977912;28;20449;-65
2022/06/21 05:10:33;;;;;;;7.45;4.40;;;;;;;;;;4979416;28;20563;-66
2022/06/21 05:13:05;;;;;;;11.70;5.40;;;;;;;;;;4976610;28;20038;-66
2022/06/21 05:15:39;;;;;;;13.07;4.80;;;;;;;;;;4975937;28;20050;-66
2022/06/21 05:18:11;;;;;;;6.28;4.22;;;;;;;;;;4976229;28;20030;-67
2022/06/21 05:20:44;;;;;;;6.95;4.05;;;;;;;;;;4976172;28;20069;-66
2022/06/21 05:23:10;;;;;;;;;;;;;;;;;;4976968;28;20035;-66
2022/06/21 05:25:40;;;;;;;6.55;4.88;;;;;;;;;;4976120;28;19910;-66
2022/06/21 05:28:25;;;;;;;11.65;4.32;;;;;;;;;;4975008;28;20038;-66
2022/06/21 05:31:18;;;;;;;8.13;4.88;;;;;;;;;;4984194;28;20022;-66
2022/06/21 05:33:47;;;;;;;12.68;5.15;;;;;;;;;;4991472;28;20085;-66
2022/06/21 05:36:32;;;;;;;13.35;4.93;;;;;;;;;;4975840;28;20035;-68
2022/06/21 05:39:08;;;;;;;10.68;4.07;;;;;;;;;;4975957;28;20478;-67
2022/06/21 05:41:41;;;;;;;6.60;4.40;;;;;;;;;;4976062;28;20062;-66
2022/06/21 05:44:14;;;;;;;10.57;3.78;;;;;;;;;;4980327;28;20062;-68
2022/06/21 05:46:49;;;;;;;5.40;3.78;;;;;;;;;;4988273;28;20030;-67
2022/06/21 05:49:25;;;;;;;9.02;3.90;;;;;;;;;;5014055;28;20034;-66
2022/06/21 05:51:55;;;;;;;8.02;4.10;;;;;;;;;;5003697;28;20041;-67
2022/06/21 05:54:28;;;;;;;7.22;4.00;;;;;;;;;;4994067;28;20129;-68
2022/06/21 05:56:54;;;;;;;8.45;3.80;;;;;;;;;;4975187;28;20335;-67
2022/06/21 05:59:23;;;;;;;17.73;4.30;;;;;;;;;;4975291;28;20023;-66
2022/06/21 06:02:09;;;;;;;6.57;4.45;;;;;;;;;;4974719;28;20413;-67
2022/06/21 06:04:57;;;;;;;9.15;4.00;;;;;;;;;;4982356;28;20129;-66
2022/06/21 06:07:31;;;;;;;8.07;3.63;;;;;;;;;;4974670;28;20030;-68
2022/06/21 06:10:00;;;;;;;11.10;4.40;;;;;;;;;;4979827;28;20416;-66
2022/06/21 06:12:36;;;;;;;11.38;4.22;;;;;;;;;;4978612;28;20470;-71
2022/06/21 06:15:04;;;;;;;7.88;3.70;;;;;;;;;;4983090;28;20039;-71
2022/06/21 06:17:59;;;;;;;10.65;3.78;;;;;;;;;;4975162;28;20037;-69
2022/06/21 06:20:32;;;;;;;11.07;6.40;;;;;;;;;;4979681;28;20050;-69
2022/06/21 06:23:12;;;;;;;8.13;3.75;;;;;;;;;;4985014;28;20034;-71
2022/06/21 06:25:42;;;;;;;6.65;3.45;;;;;;;;;;4973741;28;20039;-72
2022/06/21 06:28:15;;;;;;;13.40;3.67;;;;;;;;;;4974789;28;20035;-73
2022/06/21 06:30:49;;;;;;;8.45;3.47;;;;;;;;;;4977576;28;20041;-72
2022/06/21 06:33:38;;;;;;;10.35;3.92;;;;;;;;;;4990587;28;20477;-73
2022/06/21 06:36:09;;;;;;;7.55;3.50;;;;;;;;;;4991874;28;20088;-71
2022/06/21 06:38:36;;;;;;;11.10;3.30;;;;;;;;;;4991872;28;20504;-72
2022/06/21 06:41:14;;;;;;;5.50;3.10;;;;;;;;;;4992622;28;20117;-74
2022/06/21 06:43:48;;;;;;;8.82;3.40;;;;;;;;;;4990281;28;20038;-73
2022/06/21 06:46:31;;;;;;;4.40;3.17;;;;;;;;;;4979016;28;20027;-71
2022/06/21 06:49:25;;;;;;;4.88;2.83;;;;;;;;;;4981064;28;20065;-73
2022/06/21 06:52:04;;;;;;;8.77;3.40;;;;;;;;;;4973485;28;20043;-71
2022/06/21 06:54:29;;;;;;;5.97;3.20;;;;;;;;;;4972986;28;20069;-72
2022/06/21 06:57:03;;;;;;;6.05;3.33;;;;;;;;;;4972659;28;20054;-73
2022/06/21 06:59:29;;;;;;;5.03;3.20;;;;;;;;;;4973258;28;20437;-72
2022/06/21 07:02:01;;;;;;;14.85;3.78;;;;;;;;;;4973102;28;20282;-74
2022/06/21 07:04:35;;;;;;;4.33;2.93;;;;;;;;;;4972906;28;20133;-74
2022/06/21 07:07:14;;;;;;;10.68;4.20;;;;;;;;;;4972573;28;20075;-73
2022/06/21 07:09:48;;;;;;;6.75;3.60;;;;;;;;;;4972852;28;20035;-74
2022/06/21 07:12:29;;;;;;;6.30;3.30;;;;;;;;;;4973069;28;20105;-72
2022/06/21 07:14:56;;;;;;;3.63;2.70;;;;;;;;;;4973203;28;20398;-76
2022/06/21 07:17:29;;;;;;;12.52;3.60;;;;;;;;;;4973173;28;20030;-72
2022/06/21 07:19:55;;;;;;;7.70;3.55;;;;;;;;;;4972886;28;20389;-72
2022/06/21 07:22:27;;;;;;;6.65;3.20;;;;;;;;;;4974983;28;20105;-75
2022/06/21 07:25:02;;;;;;;5.82;2.90;;;;;;;;;;5011895;28;20026;-73
2022/06/21 07:27:31;;;;;;;4.85;3.05;;;;;;;;;;5011865;28;20137;-73
2022/06/21 07:30:07;;;;;;;4.32;2.90;;;;;;;;;;5005888;28;20109;-70
2022/06/21 07:32:41;;;;;;;5.32;3.20;;;;;;;;;;5011070;28;20382;-73
2022/06/21 07:35:16;;;;;;;4.90;3.17;;;;;;;;;;4949220;28;1322114;-74
2022/06/21 07:37:51;;;;;;;3.85;3.08;;;;;;;;;;4991530;28;20280;-73
2022/06/21 07:40:25;;;;;;;5.80;2.75;;;;;;;;;;4992018;28;20037;-72
2022/06/21 07:43:03;;;;;;;6.03;3.03;;;;;;;;;;4992520;28;20092;-72
2022/06/21 07:45:36;;;;;;;8.88;3.78;;;;;;;;;;4992184;28;20062;-72
2022/06/21 07:48:27;;;;;;;8.45;2.97;;;;;;;;;;4991790;28;20401;-72
2022/06/21 07:51:07;;;;;;;4.28;2.90;;;;;;;;;;5010328;28;20041;-75
2022/06/21 07:53:46;;;;;;;6.28;3.05;;;;;;;;;;5011607;28;20030;-75
2022/06/21 07:56:16;;;;;;;6.07;3.05;;;;;;;;;;5011252;28;20058;-73
2022/06/21 07:59:03;;;;;;;4.50;2.63;;;;;;;;;;5011406;28;20030;-74
2022/06/21 08:07:30;;;;;;;9.73;2.83;;;;;;;;;;5011501;28;20084;-76
2022/06/21 08:10:13;;;;;;;6.47;2.65;;;;;;;;;;5010831;28;20033;-71
2022/06/21 08:12:39;;;;;;;6.93;3.22;;;;;;;;;;5011803;28;20036;-74
2022/06/21 08:15:05;;;;;;;3.00;2.50;;;;;;;;;;5011753;28;20361;-74
2022/06/21 08:17:44;;;;;;;5.78;2.63;;;;;;;;;;5010263;28;20044;-73
2022/06/21 08:20:20;;;;;;;6.40;2.88;;;;;;;;;;5011088;28;20038;-75
2022/06/21 08:23:03;;;;;;;6.10;3.47;;;;;;;;;;5009987;28;20096;-72
2022/06/21 08:25:45;;;;;;;7.35;3.20;;;;;;;;;;5012077;28;20420;-72
2022/06/21 08:28:31;;;;;;;5.13;3.27;;;;;;;;;;5011225;28;20034;-71
2022/06/21 08:31:02;;;;;;;4.55;2.92;;;;;;;;;;5010526;28;20263;-74
2022/06/21 08:33:46;;;;;;;4.70;2.80;;;;;;;;;;5011088;28;20050;-70
2022/06/21 08:36:18;;;;;;;6.88;2.92;;;;;;;;;;5011494;28;20030;-72
2022/06/21 08:38:47;;;;;;;;;;;;;;;;;;5011625;28;20080;-71
2022/06/21 08:41:55;;;;;;;4.97;3.03;;;;;;;;;;5011023;28;19913;-72
2022/06/21 08:45:40;;;;;;;6.43;3.00;;;;;;;;;;5011045;28;20037;-72
2022/06/21 08:48:06;;;;;;;6.00;3.10;;;;;;;;;;5010940;28;20096;-72
2022/06/21 08:50:59;;;;;;;4.53;2.97;;;;;;;;;;5011031;28;20022;-71
2022/06/21 08:54:08;;;;;;;7.35;3.20;;;;;;;;;;5011809;28;20428;-71
2022/06/21 08:56:56;;;;;;;4.07;2.90;;;;;;;;;;5010824;28;20081;-70
2022/06/21 08:59:22;;;;;;;5.30;3.00;;;;;;;;;;5011512;28;20026;-70
2022/06/21 09:02:05;;;;;;;8.90;3.17;;;;;;;;;;5010916;28;20041;-71
2022/06/21 09:04:52;;;;;;;7.90;3.15;;;;;;;;;;4992931;28;20043;-74
2022/06/21 09:07:55;;;;;;;6.40;3.10;;;;;;;;;;4986890;28;20551;-70
2022/06/21 09:10:31;;;;;;;3.63;2.83;;;;;;;;;;4970747;28;20041;-71
2022/06/21 09:13:06;;;;;;;5.35;3.38;;;;;;;;;;4971783;28;20118;-74
2022/06/21 09:15:42;;;;;;;6.30;2.88;;;;;;;;;;4973965;28;20058;-73
2022/06/21 09:18:17;;;;;;;4.03;2.78;;;;;;;;;;5010671;28;20037;-73
2022/06/21 09:21:11;;;;;;;5.55;3.50;;;;;;;;;;5007298;28;20544;-71
2022/06/21 09:23:51;;;;;;;5.80;3.08;;;;;;;;;;4992461;28;20046;-73
2022/06/21 09:26:37;;;;;;;6.88;3.10;;;;;;;;;;4994943;28;20030;-73
2022/06/21 09:29:20;;;;;;;6.18;2.92;;;;;;;;;;4993642;28;20037;-75
2022/06/21 09:32:38;;;;;;;3.38;2.85;;;;;;;;;;4994189;28;20050;-73
2022/06/21 09:35:15;;;;;;;3.95;2.80;;;;;;;;;;4992208;28;20038;-73
2022/06/21 09:38:09;;;;;;;4.97;2.88;;;;;;;;;;4993008;28;20126;-72
2022/06/21 09:41:00;;;;;;;6.55;2.95;;;;;;;;;;4993529;28;20134;-74
2022/06/21 09:43:41;;;;;;;5.88;2.92;;;;;;;;;;4993756;28;20504;-70
2022/06/21 09:46:32;;;;;;;5.13;3.15;;;;;;;;;;4994412;28;20026;-72
2022/06/21 09:49:03;;;;;;;5.63;2.90;;;;;;;;;;4992647;28;20049;-73
2022/06/21 09:52:03;;;;;;;4.05;2.88;;;;;;;;;;4990920;28;20431;-75
2022/06/21 09:54:38;;;;;;;6.55;3.20;;;;;;;;;;4994133;28;20030;-74
2022/06/21 09:57:45;;;;;;;4.70;2.67;;;;;;;;;;4993964;28;20491;-73
2022/06/21 10:00:44;;;;;;;4.85;3.35;;;;;;;;;;4971849;28;20038;-75
2022/06/21 10:03:37;;;;;;;4.45;2.92;;;;;;;;;;4964382;28;20051;-73
2022/06/21 10:06:24;;;;;;;5.78;3.15;;;;;;;;;;4991152;28;20046;-76
2022/06/21 10:09:29;;;;;;;4.32;2.92;;;;;;;;;;4994230;28;20041;-72
2022/06/21 10:12:04;;;;;;;5.97;2.88;;;;;;;;;;4981412;28;20506;-71
2022/06/21 10:14:48;;;;;;;5.53;3.08;;;;;;;;;;4993413;28;20038;-71
2022/06/21 10:17:29;;;;;;;4.10;2.75;;;;;;;;;;4994170;28;20133;-71
2022/06/21 10:20:22;;;;;;;4.68;2.88;;;;;;;;;;4994683;28;20031;-72
2022/06/21 10:23:06;;;;;;;;;;;;;;;;;;4993907;28;20117;-70
2022/06/21 10:25:57;;;;;;;3.40;3.00;;;;;;;;;;4993506;28;19921;-73
2022/06/21 10:28:58;;;;;;;6.38;3.30;;;;;;;;;;4992782;28;20030;-73
2022/06/21 10:31:33;;;;;;;4.55;3.28;;;;;;;;;;4973897;28;20118;-71
2022/06/21 10:34:11;;;;;;;4.90;2.88;;;;;;;;;;4982538;28;20035;-70
2022/06/21 10:37:01;;;;;;;4.00;3.10;;;;;;;;;;4973588;28;20046;-71
2022/06/21 10:40:01;;;;;;;8.70;3.45;;;;;;;;;;4972445;28;20049;-70
2022/06/21 10:42:47;;;;;;;6.90;5.50;;;;;;;;;;4973962;28;20067;-70
2022/06/21 10:45:36;;;;;;;7.25;5.03;;;;;;;;;;4980395;28;20407;-71
2022/06/21 10:48:28;;;;;;;5.05;3.15;;;;;;;;;;4993928;28;20031;-71
2022/06/21 10:51:15;;;;;;;6.90;3.45;;;;;;;;;;4992123;28;20666;-71
2022/06/21 10:53:46;;;;;;;11.50;3.00;;;;;;;;;;4991329;28;20397;-70
2022/06/21 11:02:59;;;;;;;4.32;2.88;;;;;;;;;;4994517;28;20062;-73
2022/06/21 11:05:43;;;;;;;5.22;3.00;;;;;;;;;;4991671;28;20030;-73
2022/06/21 11:08:12;;;;;;;7.85;3.60;;;;;;;;;;4991819;28;20080;-75
2022/06/21 11:10:47;;;;;;;8.35;3.00;;;;;;;;;;4993247;28;20113;-73
2022/06/21 11:13:17;;;;;;;4.63;2.85;;;;;;;;;;4993513;28;20038;-72
2022/06/21 11:16:06;;;;;;;8.02;2.80;;;;;;;;;;4992978;28;20026;-72
2022/06/21 11:19:11;;;;;;;6.85;3.10;;;;;;;;;;4993559;28;20034;-71
2022/06/21 11:21:58;;;;;;;5.03;2.97;;;;;;;;;;4994491;28;20432;-73
2022/06/21 11:24:46;;;;;;;4.88;3.00;;;;;;;;;;4979926;28;20070;-72
2022/06/21 11:27:43;;;;;;;3.78;2.85;;;;;;;;;;4972499;28;20038;-73
2022/06/21 11:30:21;;;;;;;5.15;3.00;;;;;;;;;;4971923;28;20034;-74
2022/06/21 11:33:12;;;;;;;5.97;2.72;;;;;;;;;;4974038;28;20035;-74
2022/06/21 11:36:02;;;;;;;6.03;2.90;;;;;;;;;;4973942;28;20047;-72
2022/06/21 11:38:40;;;;;;;6.85;3.60;;;;;;;;;;4974103;28;20183;-73
2022/06/21 11:41:11;;;;;;;3.90;3.10;;;;;;;;;;4973857;28;20184;-73
2022/06/21 11:44:12;;;;;;;5.00;3.83;;;;;;;;;;4973789;28;20031;-74
2022/06/21 11:46:49;;;;;;;5.93;4.18;;;;;;;;;;4974369;28;20043;-72
2022/06/21 11:49:34;;;;;;;4.32;3.63;;;;;;;;;;4973956;28;20050;-73
2022/06/21 11:52:11;;;;;;;11.80;3.72;;;;;;;;;;4974241;28;20453;-72
2022/06/21 11:55:09;;;;;;;3.72;2.85;;;;;;;;;;4973744;28;20074;-73
2022/06/21 11:57:55;;;;;;;6.53;2.92;;;;;;;;;;4972073;28;20064;-72
2022/06/21 12:00:38;;;;;;;6.55;3.22;;;;;;;;;;4973351;28;20485;-70
2022/06/21 12:03:05;;;;;;;8.38;3.75;;;;;;;;;;4973659;28;20031;-72
2022/06/21 12:05:44;;;;;;;4.65;3.17;;;;;;;;;;4973273;28;20026;-72
2022/06/21 12:08:26;;;;;;;4.25;2.63;;;;;;;;;;4973630;28;20035;-71
2022/06/21 12:11:03;;;;;;;6.43;4.13;;;;;;;;;;4973512;28;20031;-71
2022/06/21 12:13:41;;;;;;;4.43;3.00;;;;;;;;;;4973614;28;20501;-71
2022/06/21 12:16:19;;;;;;;4.97;2.90;;;;;;;;;;4973706;28;20065;-71
2022/06/21 12:18:51;;;;;;;6.60;2.92;;;;;;;;;;4973652;28;20375;-71
2022/06/21 12:21:21;;;;;;;5.82;2.50;;;;;;;;;;4956179;28;20039;-72
2022/06/21 12:23:54;;;;;;;5.75;2.88;;;;;;;;;;4972530;28;20031;-71
2022/06/21 12:26:22;;;;;;;7.85;3.30;;;;;;;;;;4973596;28;20030;-71
2022/06/21 12:28:49;;;;;;;4.55;2.80;;;;;;;;;;4973862;28;20057;-70
2022/06/21 12:31:18;;;;;;;4.65;2.80;;;;;;;;;;4973764;28;20082;-71
2022/06/21 12:33:47;;;;;;;7.38;3.17;;;;;;;;;;4975170;28;20058;-71
2022/06/21 12:36:26;;;;;;;5.57;3.50;;;;;;;;;;4992509;28;20034;-72
2022/06/21 12:39:16;;;;;;;5.10;2.80;;;;;;;;;;4992535;28;20113;-72
2022/06/21 12:41:55;;;;;;;7.25;2.90;;;;;;;;;;4992263;28;20086;-71
2022/06/21 12:44:40;;;;;;;6.03;2.85;;;;;;;;;;4992932;28;20061;-70
2022/06/21 12:47:24;;;;;;;4.75;2.90;;;;;;;;;;4992200;28;20038;-72
2022/06/21 12:50:23;;;;;;;8.50;2.85;;;;;;;;;;4992292;28;20030;-70
2022/06/21 12:53:12;;;;;;;8.30;3.58;;;;;;;;;;4992329;28;20435;-72
2022/06/21 12:55:40;;;;;;;6.63;2.80;;;;;;;;;;4993338;28;20058;-71
2022/06/21 12:58:24;;;;;;;3.65;2.80;;;;;;;;;;4994813;28;20492;-70
2022/06/21 13:00:53;;;;;;;5.97;2.97;;;;;;;;;;4995724;28;20046;-72
2022/06/21 13:03:42;;;;;;;8.90;3.15;;;;;;;;;;4995635;28;20370;-72
2022/06/21 13:06:25;;;;;;;5.72;2.95;;;;;;;;;;5005512;28;20397;-71
2022/06/21 13:09:16;;;;;;;6.40;2.78;;;;;;;;;;5015465;28;20053;-71
2022/06/21 13:12:00;;;;;;;4.80;2.97;;;;;;;;;;5015325;28;20100;-72
2022/06/21 13:14:50;;;;;;;6.38;3.38;;;;;;;;;;5015587;28;20061;-76
2022/06/21 13:17:31;;;;;;;5.97;2.83;;;;;;;;;;5015110;28;20501;-76
2022/06/21 13:20:09;;;;;;;7.47;3.30;;;;;;;;;;5015411;28;20053;-73
2022/06/21 13:22:46;;;;;;;7.03;3.10;;;;;;;;;;5015365;28;20576;-73
2022/06/21 13:25:31;;;;;;;10.30;3.30;;;;;;;;;;5014118;28;20030;-77
2022/06/21 13:28:18;;;;;;;9.00;3.10;;;;;;;;;;4995866;28;20034;-74
2022/06/21 13:30:50;;;;;;;5.15;2.70;;;;;;;;;;4995555;28;20034;-77
2022/06/21 13:33:19;;;;;;;4.65;2.85;;;;;;;;;;4995507;28;20058;-72
2022/06/21 13:35:47;;;;;;;4.45;2.80;;;;;;;;;;4995565;28;20038;-73
2022/06/21 13:38:24;;;;;;;5.82;2.85;;;;;;;;;;4995565;28;20560;-71
2022/06/21 13:41:02;;;;;;;5.78;3.10;;;;;;;;;;4995308;28;20504;-72
2022/06/21 13:43:52;;;;;;;4.05;2.88;;;;;;;;;;4995614;28;20133;-72
2022/06/21 13:46:25;;;;;;;5.57;3.03;;;;;;;;;;4995088;28;20116;-74
2022/06/21 13:49:11;;;;;;;6.65;2.92;;;;;;;;;;4995053;28;20026;-72
2022/06/21 13:51:53;;;;;;;6.63;2.50;;;;;;;;;;4995153;28;20038;-71
2022/06/21 13:54:58;;;;;;;8.63;3.10;;;;;;;;;;4995048;28;20065;-72
2022/06/21 13:58:19;;;;;;;5.88;2.92;;;;;;;;;;4993071;28;20053;-74
2022/06/21 14:00:58;;;;;;;4.63;2.92;;;;;;;;;;5000710;28;20137;-73
2022/06/21 14:03:36;;;;;;;7.10;3.08;;;;;;;;;;4995972;28;20418;-74
2022/06/21 14:06:13;;;;;;;5.28;2.70;;;;;;;;;;4995425;28;20366;-72
2022/06/21 14:08:52;;;;;;;4.90;2.95;;;;;;;;;;4995247;28;20034;-73
2022/06/21 14:11:18;;;;;;;10.40;3.10;;;;;;;;;;4995161;28;20038;-72
2022/06/21 14:13:51;;;;;;;5.28;3.00;;;;;;;;;;4995193;28;20486;-70
2022/06/21 14:16:33;;;;;;;7.10;3.42;;;;;;;;;;4994825;28;20088;-70
2022/06/21 14:19:12;;;;;;;6.90;3.58;;;;;;;;;;4995184;28;20084;-71
2022/06/21 14:22:08;;;;;;;4.63;2.80;;;;;;;;;;4995091;28;20487;-70
2022/06/21 14:24:42;;;;;;;5.43;2.80;;;;;;;;;;4995127;28;20107;-69
2022/06/21 14:27:47;;;;;;;4.50;3.08;;;;;;;;;;4994808;28;20031;-71
2022/06/21 14:30:42;;;;;;;4.40;3.00;;;;;;;;;;5012462;28;20064;-71
2022/06/21 14:33:30;;;;;;;3.70;2.83;;;;;;;;;;4994963;28;20105;-71
2022/06/21 14:36:00;;;;;;;6.65;2.75;;;;;;;;;;4994873;28;20113;-73
2022/06/21 14:38:39;;;;;;;8.90;3.55;;;;;;;;;;4994805;28;20049;-70
2022/06/21 14:41:20;;;;;;;7.43;3.25;;;;;;;;;;4994398;28;20038;-70
2022/06/21 14:44:17;;;;;;;5.68;3.03;;;;;;;;;;4994530;28;20044;-71
2022/06/21 14:47:13;;;;;;;4.43;2.92;;;;;;;;;;4992467;28;20042;-71
2022/06/21 14:49:50;;;;;;;6.00;3.30;;;;;;;;;;4995492;28;20030;-74
2022/06/21 14:52:43;;;;;;;5.80;3.00;;;;;;;;;;5009753;28;20536;-70
2022/06/21 14:55:43;;;;;;;7.07;2.85;;;;;;;;;;4992547;28;20482;-70
2022/06/21 14:58:29;;;;;;;4.68;2.97;;;;;;;;;;4993690;28;20034;-69
2022/06/21 15:01:18;;;;;;;8.43;3.53;;;;;;;;;;4998860;28;20033;-72
2022/06/21 15:04:08;;;;;;;7.05;3.20;;;;;;;;;;5013178;28;20117;-70
2022/06/21 15:06:37;;;;;;;6.07;3.30;;;;;;;;;;5012764;28;20041;-68
2022/06/21 15:09:12;;;;;;;8.43;3.47;;;;;;;;;;5013486;28;20021;-73
2022/06/21 15:12:10;;;;;;;6.53;3.50;;;;;;;;;;5013262;28;20073;-73
2022/06/21 15:14:37;;;;;;;6.57;3.22;;;;;;;;;;5013328;28;20038;-74
2022/06/21 15:17:34;;;;;;;6.35;3.25;;;;;;;;;;5012996;28;20105;-74
2022/06/21 15:20:21;;;;;;;7.25;3.40;;;;;;;;;;5012667;28;20034;-73
2022/06/21 15:23:03;;;;;;;6.40;3.47;;;;;;;;;;5013188;28;20030;-76
2022/06/21 15:25:57;;;;;;;6.57;3.50;;;;;;;;;;5013707;28;20052;-74
2022/06/21 15:28:31;;;;;;;7.78;3.35;;;;;;;;;;5013216;28;20100;-76
2022/06/21 15:31:03;;;;;;;5.85;3.40;;;;;;;;;;5012760;28;20384;-76
2022/06/21 15:34:19;;;;;;;5.95;3.45;;;;;;;;;;5012993;28;20053;-76
2022/06/21 15:36:51;;;;;;;9.50;3.90;;;;;;;;;;5012828;28;20125;-76
2022/06/21 15:39:27;;;;;;;12.05;3.70;;;;;;;;;;4998989;28;20043;-74
2022/06/21 15:42:05;;;;;;;9.30;3.22;;;;;;;;;;4992955;28;20061;-72
2022/06/21 15:44:37;;;;;;;5.20;3.47;;;;;;;;;;4992215;28;20030;-71
2022/06/21 15:50:21;;;;;;;7.95;3.42;;;;;;;;;;4993504;28;20125;-71
2022/06/21 15:53:11;;;;;;;6.68;3.60;;;;;;;;;;4993641;28;20124;-73
2022/06/21 15:55:52;;;;;;;8.35;3.92;;;;;;;;;;4993424;28;20112;-73
2022/06/21 15:58:42;;;;;;;5.07;3.38;;;;;;;;;;4993401;28;20046;-70
2022/06/21 16:01:16;;;;;;;7.22;3.38;;;;;;;;;;4993175;28;20046;-70
2022/06/21 16:03:48;;;;;;;7.68;3.30;;;;;;;;;;4993075;28;20034;-70
2022/06/21 16:06:25;;;;;;;3.88;3.45;;;;;;;;;;4993125;28;20035;-71
2022/06/21 16:08:58;;;;;;;4.68;3.38;;;;;;;;;;4993148;28;20026;-72